sensor_id;sensor_type;location;lat;lon;timestamp;pressure;altitude;pressure_sealevel;temperature;humidity
21817;BME280;13247;47.504;7.382;2023-07-29T00:02:26;96896.41;;;19.23;100.00
21817;BME280;13247;47.504;7.382;2023-07-29T00:05:14;96895.47;;;19.24;100.00
21817;BME280;13247;47.504;7.382;2023-07-29T00:07:58;96883.72;;;19.39;100.00
21817;BME280;13247;47.504;7.382;2023-07-29T00:10:43;96877.13;;;19.44;100.00
21817;BME280;13247;47.504;7.382;2023-07-29T00:13:27;96880.91;;;19.53;100.00
21817;BME280;13247;47.504;7.382;2023-07-29T00:16:12;96881.72;;;19.77;100.00
21817;BME280;13247;47.504;7.382;2023-07-29T00:18:57;96875.25;;;19.58;100.00
21817;BME280;13247;47.504;7.382;2023-07-29T00:21:41;96859.78;;;19.63;100.00
21817;BME280;13247;47.504;7.382;2023-07-29T00:24:26;96861.16;;;19.79;100.00
21817;BME280;13247;47.504;7.382;2023-07-29T00:27:10;96865.66;;;19.79;100.00
21817;BME280;13247;47.504;7.382;2023-07-29T00:29:55;96857.69;;;19.90;100.00
21817;BME280;13247;47.504;7.382;2023-07-29T00:32:39;96866.00;;;19.74;100.00
21817;BME280;13247;47.504;7.382;2023-07-29T00:35:24;96851.16;;;19.83;100.00
21817;BME280;13247;47.504;7.382;2023-07-29T00:38:09;96855.22;;;19.76;100.00
21817;BME280;13247;47.504;7.382;2023-07-29T00:40:53;96851.72;;;19.40;100.00
21817;BME280;13247;47.504;7.382;2023-07-29T00:43:38;96851.59;;;19.42;100.00
21817;BME280;13247;47.504;7.382;2023-07-29T00:46:22;96855.13;;;19.53;100.00
21817;BME280;13247;47.504;7.382;2023-07-29T00:49:07;96847.47;;;19.38;100.00
21817;BME280;13247;47.504;7.382;2023-07-29T00:51:52;96846.09;;;19.32;100.00
21817;BME280;13247;47.504;7.382;2023-07-29T00:54:37;96842.41;;;19.46;100.00
21817;BME280;13247;47.504;7.382;2023-07-29T00:57:22;96846.66;;;19.48;100.00
21817;BME280;13247;47.504;7.382;2023-07-29T01:00:10;96853.09;;;19.81;100.00
21817;BME280;13247;47.504;7.382;2023-07-29T01:02:55;96838.41;;;20.10;100.00
21817;BME280;13247;47.504;7.382;2023-07-29T01:09:02;96838.78;;;20.16;100.00
21817;BME280;13247;47.504;7.382;2023-07-29T01:14:59;96845.84;;;19.94;100.00
21817;BME280;13247;47.504;7.382;2023-07-29T01:17:59;96839.69;;;20.04;100.00
21817;BME280;13247;47.504;7.382;2023-07-29T01:20:48;96836.47;;;20.12;100.00
21817;BME280;13247;47.504;7.382;2023-07-29T01:23:38;96850.72;;;20.00;100.00
21817;BME280;13247;47.504;7.382;2023-07-29T01:26:25;96857.41;;;20.16;100.00
21817;BME280;13247;47.504;7.382;2023-07-29T01:29:10;96853.22;;;20.25;100.00
21817;BME280;13247;47.504;7.382;2023-07-29T01:31:58;96848.31;;;20.08;100.00
21817;BME280;13247;47.504;7.382;2023-07-29T01:34:48;96848.03;;;19.89;100.00
21817;BME280;13247;47.504;7.382;2023-07-29T01:37:38;96847.97;;;19.78;100.00
21817;BME280;13247;47.504;7.382;2023-07-29T01:40:26;96849.22;;;19.85;100.00
21817;BME280;13247;47.504;7.382;2023-07-29T01:43:15;96851.34;;;20.14;100.00
21817;BME280;13247;47.504;7.382;2023-07-29T01:46:00;96849.00;;;19.99;100.00
21817;BME280;13247;47.504;7.382;2023-07-29T01:48:45;96853.00;;;19.93;100.00
21817;BME280;13247;47.504;7.382;2023-07-29T01:51:30;96850.69;;;19.89;100.00
21817;BME280;13247;47.504;7.382;2023-07-29T01:54:15;96848.78;;;20.02;100.00
21817;BME280;13247;47.504;7.382;2023-07-29T01:56:59;96854.28;;;19.88;100.00
21817;BME280;13247;47.504;7.382;2023-07-29T01:59:44;96848.19;;;20.09;100.00
21817;BME280;13247;47.504;7.382;2023-07-29T02:02:31;96849.22;;;19.96;100.00
21817;BME280;13247;47.504;7.382;2023-07-29T02:05:16;96844.38;;;19.79;100.00
21817;BME280;13247;47.504;7.382;2023-07-29T02:08:01;96838.03;;;19.69;100.00
21817;BME280;13247;47.504;7.382;2023-07-29T02:10:45;96833.69;;;19.68;100.00
21817;BME280;13247;47.504;7.382;2023-07-29T02:13:33;96841.06;;;19.75;100.00
21817;BME280;13247;47.504;7.382;2023-07-29T02:16:18;96842.28;;;19.71;100.00
21817;BME280;13247;47.504;7.382;2023-07-29T02:19:02;96829.22;;;19.79;100.00
21817;BME280;13247;47.504;7.382;2023-07-29T02:21:48;96839.53;;;19.84;100.00
21817;BME280;13247;47.504;7.382;2023-07-29T02:24:36;96846.81;;;19.93;100.00
21817;BME280;13247;47.504;7.382;2023-07-29T02:27:20;96838.19;;;19.78;100.00
21817;BME280;13247;47.504;7.382;2023-07-29T02:30:06;96837.13;;;19.81;100.00
21817;BME280;13247;47.504;7.382;2023-07-29T02:32:51;96837.97;;;19.92;100.00
21817;BME280;13247;47.504;7.382;2023-07-29T02:35:36;96833.53;;;20.04;100.00
21817;BME280;13247;47.504;7.382;2023-07-29T02:38:21;96832.81;;;20.13;100.00
21817;BME280;13247;47.504;7.382;2023-07-29T02:41:05;96827.13;;;19.95;100.00
21817;BME280;13247;47.504;7.382;2023-07-29T02:43:51;96835.72;;;20.10;100.00
21817;BME280;13247;47.504;7.382;2023-07-29T02:46:39;96839.47;;;20.07;100.00
21817;BME280;13247;47.504;7.382;2023-07-29T02:49:24;96839.13;;;20.12;100.00
21817;BME280;13247;47.504;7.382;2023-07-29T02:52:09;96837.19;;;20.14;100.00
21817;BME280;13247;47.504;7.382;2023-07-29T02:54:54;96834.09;;;20.20;100.00
21817;BME280;13247;47.504;7.382;2023-07-29T02:57:38;96834.75;;;20.11;100.00
21817;BME280;13247;47.504;7.382;2023-07-29T03:00:23;96837.91;;;20.16;100.00
21817;BME280;13247;47.504;7.382;2023-07-29T03:03:08;96839.19;;;19.88;100.00
21817;BME280;13247;47.504;7.382;2023-07-29T03:06:07;96837.94;;;19.70;100.00
21817;BME280;13247;47.504;7.382;2023-07-29T03:08:52;96830.81;;;19.82;100.00
21817;BME280;13247;47.504;7.382;2023-07-29T03:11:37;96831.34;;;19.98;100.00
21817;BME280;13247;47.504;7.382;2023-07-29T03:14:22;96832.53;;;19.94;100.00
21817;BME280;13247;47.504;7.382;2023-07-29T03:17:07;96836.06;;;20.05;100.00
21817;BME280;13247;47.504;7.382;2023-07-29T03:19:52;96838.97;;;20.02;100.00
21817;BME280;13247;47.504;7.382;2023-07-29T03:22:37;96833.75;;;20.01;100.00
21817;BME280;13247;47.504;7.382;2023-07-29T03:25:22;96836.91;;;19.95;100.00
21817;BME280;13247;47.504;7.382;2023-07-29T03:28:07;96826.03;;;19.98;100.00
21817;BME280;13247;47.504;7.382;2023-07-29T03:30:51;96820.31;;;20.02;100.00
21817;BME280;13247;47.504;7.382;2023-07-29T03:33:39;96814.44;;;20.10;100.00
21817;BME280;13247;47.504;7.382;2023-07-29T03:36:24;96819.13;;;20.06;100.00
21817;BME280;13247;47.504;7.382;2023-07-29T03:39:09;96823.72;;;20.04;100.00
21817;BME280;13247;47.504;7.382;2023-07-29T03:41:54;96814.63;;;19.96;100.00
21817;BME280;13247;47.504;7.382;2023-07-29T03:44:42;96814.19;;;20.02;100.00
21817;BME280;13247;47.504;7.382;2023-07-29T03:47:26;96813.25;;;19.79;100.00
21817;BME280;13247;47.504;7.382;2023-07-29T03:50:11;96820.47;;;19.55;100.00
21817;BME280;13247;47.504;7.382;2023-07-29T03:52:57;96821.09;;;19.22;100.00
21817;BME280;13247;47.504;7.382;2023-07-29T03:55:42;96815.97;;;19.32;100.00
21817;BME280;13247;47.504;7.382;2023-07-29T03:58:27;96825.13;;;19.40;100.00
21817;BME280;13247;47.504;7.382;2023-07-29T04:01:14;96828.03;;;19.48;100.00
21817;BME280;13247;47.504;7.382;2023-07-29T04:04:02;96826.50;;;19.57;100.00
21817;BME280;13247;47.504;7.382;2023-07-29T04:06:47;96833.16;;;19.63;100.00
21817;BME280;13247;47.504;7.382;2023-07-29T04:09:34;96832.59;;;19.70;100.00
21817;BME280;13247;47.504;7.382;2023-07-29T04:12:19;96840.69;;;19.69;100.00
21817;BME280;13247;47.504;7.382;2023-07-29T04:15:07;96840.28;;;19.62;100.00
21817;BME280;13247;47.504;7.382;2023-07-29T04:17:52;96842.22;;;19.60;100.00
21817;BME280;13247;47.504;7.382;2023-07-29T04:20:36;96839.41;;;19.50;100.00
21817;BME280;13247;47.504;7.382;2023-07-29T04:23:21;96838.56;;;19.50;100.00
21817;BME280;13247;47.504;7.382;2023-07-29T04:26:06;96829.00;;;19.47;100.00
21817;BME280;13247;47.504;7.382;2023-07-29T04:28:50;96829.91;;;19.59;100.00
21817;BME280;13247;47.504;7.382;2023-07-29T04:31:35;96836.91;;;19.60;100.00
21817;BME280;13247;47.504;7.382;2023-07-29T04:34:19;96833.81;;;19.66;100.00
21817;BME280;13247;47.504;7.382;2023-07-29T04:37:05;96832.38;;;19.49;100.00
21817;BME280;13247;47.504;7.382;2023-07-29T04:39:50;96838.75;;;19.60;100.00
21817;BME280;13247;47.504;7.382;2023-07-29T04:42:34;96841.47;;;19.47;100.00
21817;BME280;13247;47.504;7.382;2023-07-29T04:45:20;96837.63;;;19.15;100.00
21817;BME280;13247;47.504;7.382;2023-07-29T04:48:05;96846.00;;;19.21;100.00
21817;BME280;13247;47.504;7.382;2023-07-29T04:50:50;96852.16;;;19.34;100.00
21817;BME280;13247;47.504;7.382;2023-07-29T04:53:34;96848.81;;;19.43;100.00
21817;BME280;13247;47.504;7.382;2023-07-29T04:56:21;96862.16;;;19.54;100.00
21817;BME280;13247;47.504;7.382;2023-07-29T04:59:05;96857.63;;;19.68;100.00
21817;BME280;13247;47.504;7.382;2023-07-29T05:01:52;96860.50;;;19.41;100.00
21817;BME280;13247;47.504;7.382;2023-07-29T05:04:37;96855.31;;;19.39;100.00
21817;BME280;13247;47.504;7.382;2023-07-29T05:07:21;96851.84;;;19.50;100.00
21817;BME280;13247;47.504;7.382;2023-07-29T05:10:06;96858.09;;;19.62;100.00
21817;BME280;13247;47.504;7.382;2023-07-29T05:12:51;96867.59;;;19.77;100.00
21817;BME280;13247;47.504;7.382;2023-07-29T05:15:35;96861.47;;;19.98;100.00
21817;BME280;13247;47.504;7.382;2023-07-29T05:18:20;96857.75;;;20.12;100.00
21817;BME280;13247;47.504;7.382;2023-07-29T05:21:05;96859.16;;;20.28;100.00
21817;BME280;13247;47.504;7.382;2023-07-29T05:23:50;96861.34;;;20.46;100.00
21817;BME280;13247;47.504;7.382;2023-07-29T05:26:35;96867.03;;;20.41;100.00
21817;BME280;13247;47.504;7.382;2023-07-29T05:29:20;96868.72;;;20.53;100.00
21817;BME280;13247;47.504;7.382;2023-07-29T05:32:05;96872.13;;;20.55;100.00
21817;BME280;13247;47.504;7.382;2023-07-29T05:34:49;96858.81;;;20.88;100.00
21817;BME280;13247;47.504;7.382;2023-07-29T05:37:34;96854.69;;;21.06;100.00
21817;BME280;13247;47.504;7.382;2023-07-29T05:40:19;96848.84;;;21.01;100.00
21817;BME280;13247;47.504;7.382;2023-07-29T05:43:04;96843.72;;;21.32;100.00
21817;BME280;13247;47.504;7.382;2023-07-29T05:45:48;96838.56;;;21.08;100.00
21817;BME280;13247;47.504;7.382;2023-07-29T05:48:33;96848.03;;;21.44;100.00
21817;BME280;13247;47.504;7.382;2023-07-29T05:51:18;96849.78;;;21.23;100.00
21817;BME280;13247;47.504;7.382;2023-07-29T05:54:06;96855.56;;;21.50;100.00
21817;BME280;13247;47.504;7.382;2023-07-29T05:56:50;96848.84;;;21.24;100.00
21817;BME280;13247;47.504;7.382;2023-07-29T05:59:35;96855.63;;;21.28;100.00
21817;BME280;13247;47.504;7.382;2023-07-29T06:02:19;96867.69;;;21.54;100.00
21817;BME280;13247;47.504;7.382;2023-07-29T06:05:05;96874.16;;;21.72;100.00
21817;BME280;13247;47.504;7.382;2023-07-29T06:07:50;96874.47;;;21.47;100.00
21817;BME280;13247;47.504;7.382;2023-07-29T06:10:35;96883.34;;;21.47;100.00
21817;BME280;13247;47.504;7.382;2023-07-29T06:13:20;96888.00;;;21.66;100.00
21817;BME280;13247;47.504;7.382;2023-07-29T06:16:04;96895.84;;;21.90;100.00
21817;BME280;13247;47.504;7.382;2023-07-29T06:18:49;96905.06;;;22.17;100.00
21817;BME280;13247;47.504;7.382;2023-07-29T06:21:33;96910.06;;;22.11;100.00
21817;BME280;13247;47.504;7.382;2023-07-29T06:24:18;96916.47;;;22.19;100.00
21817;BME280;13247;47.504;7.382;2023-07-29T06:27:03;96917.75;;;22.25;100.00
21817;BME280;13247;47.504;7.382;2023-07-29T06:29:48;96920.47;;;22.14;100.00
21817;BME280;13247;47.504;7.382;2023-07-29T06:32:33;96925.75;;;22.04;100.00
21817;BME280;13247;47.504;7.382;2023-07-29T06:35:18;96920.41;;;22.04;100.00
21817;BME280;13247;47.504;7.382;2023-07-29T06:38:03;96930.66;;;21.88;100.00
21817;BME280;13247;47.504;7.382;2023-07-29T06:40:48;96920.56;;;22.23;100.00
21817;BME280;13247;47.504;7.382;2023-07-29T06:43:33;96923.47;;;22.20;100.00
21817;BME280;13247;47.504;7.382;2023-07-29T06:46:17;96920.38;;;22.36;100.00
21817;BME280;13247;47.504;7.382;2023-07-29T06:49:02;96930.16;;;22.46;100.00
21817;BME280;13247;47.504;7.382;2023-07-29T06:51:46;96920.28;;;22.26;100.00
21817;BME280;13247;47.504;7.382;2023-07-29T06:54:31;96923.34;;;22.22;100.00
21817;BME280;13247;47.504;7.382;2023-07-29T06:57:15;96923.63;;;22.19;100.00
21817;BME280;13247;47.504;7.382;2023-07-29T07:00:00;96928.31;;;22.26;100.00
21817;BME280;13247;47.504;7.382;2023-07-29T07:02:45;96924.88;;;22.35;100.00
21817;BME280;13247;47.504;7.382;2023-07-29T07:05:29;96914.69;;;22.29;100.00
21817;BME280;13247;47.504;7.382;2023-07-29T07:08:14;96917.81;;;22.55;100.00
21817;BME280;13247;47.504;7.382;2023-07-29T07:10:59;96921.97;;;22.59;100.00
21817;BME280;13247;47.504;7.382;2023-07-29T07:13:43;96917.28;;;22.82;100.00
21817;BME280;13247;47.504;7.382;2023-07-29T07:16:28;96924.84;;;22.97;100.00
21817;BME280;13247;47.504;7.382;2023-07-29T07:19:14;96922.88;;;22.99;100.00
21817;BME280;13247;47.504;7.382;2023-07-29T07:21:59;96923.75;;;23.09;100.00
21817;BME280;13247;47.504;7.382;2023-07-29T07:24:44;96926.69;;;23.06;100.00
21817;BME280;13247;47.504;7.382;2023-07-29T07:27:29;96911.84;;;23.23;100.00
21817;BME280;13247;47.504;7.382;2023-07-29T07:30:13;96901.31;;;23.31;100.00
21817;BME280;13247;47.504;7.382;2023-07-29T07:32:58;96912.47;;;23.36;100.00
21817;BME280;13247;47.504;7.382;2023-07-29T07:35:43;96911.19;;;23.40;100.00
21817;BME280;13247;47.504;7.382;2023-07-29T07:38:27;96924.22;;;23.54;100.00
21817;BME280;13247;47.504;7.382;2023-07-29T07:41:12;96921.38;;;23.46;100.00
21817;BME280;13247;47.504;7.382;2023-07-29T07:43:56;96911.69;;;23.55;100.00
21817;BME280;13247;47.504;7.382;2023-07-29T07:46:41;96920.00;;;23.61;100.00
21817;BME280;13247;47.504;7.382;2023-07-29T07:49:26;96925.78;;;23.57;100.00
21817;BME280;13247;47.504;7.382;2023-07-29T07:52:11;96919.16;;;23.70;100.00
21817;BME280;13247;47.504;7.382;2023-07-29T07:54:55;96915.06;;;23.57;100.00
21817;BME280;13247;47.504;7.382;2023-07-29T07:57:40;96915.22;;;23.74;100.00
21817;BME280;13247;47.504;7.382;2023-07-29T08:00:24;96914.53;;;23.91;100.00
21817;BME280;13247;47.504;7.382;2023-07-29T08:03:09;96906.63;;;23.80;100.00
21817;BME280;13247;47.504;7.382;2023-07-29T08:05:53;96906.34;;;23.93;100.00
21817;BME280;13247;47.504;7.382;2023-07-29T08:08:40;96897.78;;;24.28;100.00
21817;BME280;13247;47.504;7.382;2023-07-29T08:11:26;96900.03;;;24.32;100.00
21817;BME280;13247;47.504;7.382;2023-07-29T08:14:11;96906.97;;;24.15;100.00
21817;BME280;13247;47.504;7.382;2023-07-29T08:16:55;96892.81;;;24.42;100.00
21817;BME280;13247;47.504;7.382;2023-07-29T08:19:40;96896.38;;;24.24;100.00
21817;BME280;13247;47.504;7.382;2023-07-29T08:22:25;96896.91;;;24.46;100.00
21817;BME280;13247;47.504;7.382;2023-07-29T08:25:09;96891.16;;;24.41;100.00
21817;BME280;13247;47.504;7.382;2023-07-29T08:27:54;96886.34;;;24.45;100.00
21817;BME280;13247;47.504;7.382;2023-07-29T08:30:39;96891.22;;;24.59;100.00
21817;BME280;13247;47.504;7.382;2023-07-29T08:33:24;96888.25;;;24.81;100.00
21817;BME280;13247;47.504;7.382;2023-07-29T08:36:09;96885.00;;;25.14;100.00
21817;BME280;13247;47.504;7.382;2023-07-29T08:38:54;96882.06;;;25.44;100.00
21817;BME280;13247;47.504;7.382;2023-07-29T08:41:47;96885.44;;;25.37;100.00
21817;BME280;13247;47.504;7.382;2023-07-29T08:44:43;96879.00;;;25.30;100.00
21817;BME280;13247;47.504;7.382;2023-07-29T08:47:27;96887.72;;;25.41;100.00
21817;BME280;13247;47.504;7.382;2023-07-29T08:50:12;96899.91;;;25.26;100.00
21817;BME280;13247;47.504;7.382;2023-07-29T08:52:59;96889.25;;;25.07;100.00
21817;BME280;13247;47.504;7.382;2023-07-29T08:55:44;96886.41;;;25.18;100.00
21817;BME280;13247;47.504;7.382;2023-07-29T08:58:29;96898.00;;;25.09;100.00
21817;BME280;13247;47.504;7.382;2023-07-29T09:01:15;96892.91;;;25.16;100.00
21817;BME280;13247;47.504;7.382;2023-07-29T09:04:00;96891.16;;;25.24;100.00
21817;BME280;13247;47.504;7.382;2023-07-29T09:06:45;96895.13;;;25.20;100.00
21817;BME280;13247;47.504;7.382;2023-07-29T09:09:30;96894.53;;;25.26;100.00
21817;BME280;13247;47.504;7.382;2023-07-29T09:12:15;96895.41;;;25.54;100.00
21817;BME280;13247;47.504;7.382;2023-07-29T09:14:59;96896.06;;;25.65;100.00
21817;BME280;13247;47.504;7.382;2023-07-29T09:17:44;96897.13;;;25.55;100.00
21817;BME280;13247;47.504;7.382;2023-07-29T09:20:29;96900.41;;;25.39;100.00
21817;BME280;13247;47.504;7.382;2023-07-29T09:23:14;96892.75;;;25.72;100.00
21817;BME280;13247;47.504;7.382;2023-07-29T09:26:04;96898.28;;;25.43;100.00
21817;BME280;13247;47.504;7.382;2023-07-29T09:28:56;96891.78;;;25.45;100.00
21817;BME280;13247;47.504;7.382;2023-07-29T09:31:41;96897.13;;;25.55;100.00
21817;BME280;13247;47.504;7.382;2023-07-29T09:34:25;96886.75;;;25.42;100.00
21817;BME280;13247;47.504;7.382;2023-07-29T09:37:25;96886.81;;;25.50;100.00
21817;BME280;13247;47.504;7.382;2023-07-29T09:40:14;96885.19;;;25.85;100.00
21817;BME280;13247;47.504;7.382;2023-07-29T09:43:03;96891.00;;;25.80;100.00
21817;BME280;13247;47.504;7.382;2023-07-29T09:45:48;96892.06;;;25.69;100.00
21817;BME280;13247;47.504;7.382;2023-07-29T09:48:37;96892.59;;;25.55;100.00
21817;BME280;13247;47.504;7.382;2023-07-29T09:51:21;96889.16;;;25.63;100.00
21817;BME280;13247;47.504;7.382;2023-07-29T09:54:07;96883.53;;;25.92;100.00
21817;BME280;13247;47.504;7.382;2023-07-29T09:56:52;96888.38;;;25.70;100.00
21817;BME280;13247;47.504;7.382;2023-07-29T09:59:37;96890.22;;;25.88;100.00
21817;BME280;13247;47.504;7.382;2023-07-29T10:02:21;96887.13;;;26.10;100.00
21817;BME280;13247;47.504;7.382;2023-07-29T10:05:07;96880.56;;;26.30;100.00
21817;BME280;13247;47.504;7.382;2023-07-29T10:07:54;96878.56;;;25.97;100.00
21817;BME280;13247;47.504;7.382;2023-07-29T10:10:41;96871.06;;;26.18;100.00
21817;BME280;13247;47.504;7.382;2023-07-29T10:13:26;96876.50;;;26.69;100.00
21817;BME280;13247;47.504;7.382;2023-07-29T10:16:11;96857.75;;;26.77;100.00
21817;BME280;13247;47.504;7.382;2023-07-29T10:18:57;96871.66;;;26.55;100.00
21817;BME280;13247;47.504;7.382;2023-07-29T10:21:45;96868.25;;;26.45;100.00
21817;BME280;13247;47.504;7.382;2023-07-29T10:24:33;96871.63;;;26.47;100.00
21817;BME280;13247;47.504;7.382;2023-07-29T10:27:19;96862.88;;;26.71;100.00
21817;BME280;13247;47.504;7.382;2023-07-29T10:30:06;96859.41;;;26.78;100.00
21817;BME280;13247;47.504;7.382;2023-07-29T10:32:52;96867.16;;;27.07;100.00
21817;BME280;13247;47.504;7.382;2023-07-29T10:35:38;96871.84;;;27.05;99.50
21817;BME280;13247;47.504;7.382;2023-07-29T10:38:23;96866.94;;;27.00;100.00
21817;BME280;13247;47.504;7.382;2023-07-29T10:41:09;96871.00;;;26.53;100.00
21817;BME280;13247;47.504;7.382;2023-07-29T10:43:53;96870.03;;;26.19;100.00
21817;BME280;13247;47.504;7.382;2023-07-29T10:46:38;96863.78;;;26.54;100.00
21817;BME280;13247;47.504;7.382;2023-07-29T10:49:24;96861.28;;;26.60;100.00
21817;BME280;13247;47.504;7.382;2023-07-29T10:52:54;96853.81;;;26.46;95.31
21817;BME280;13247;47.504;7.382;2023-07-29T10:55:26;96856.72;;;26.78;100.00
21817;BME280;13247;47.504;7.382;2023-07-29T10:58:15;96845.84;;;27.21;96.21
21817;BME280;13247;47.504;7.382;2023-07-29T11:01:13;96851.31;;;27.38;89.18
21817;BME280;13247;47.504;7.382;2023-07-29T11:09:56;96851.66;;;27.43;86.27
21817;BME280;13247;47.504;7.382;2023-07-29T11:12:51;96856.41;;;27.15;87.40
21817;BME280;13247;47.504;7.382;2023-07-29T11:15:39;96867.59;;;26.94;89.46
21817;BME280;13247;47.504;7.382;2023-07-29T11:18:27;96870.69;;;26.56;92.91
21817;BME280;13247;47.504;7.382;2023-07-29T11:21:14;96859.44;;;26.35;98.73
21817;BME280;13247;47.504;7.382;2023-07-29T11:23:59;96862.81;;;26.37;94.83
21817;BME280;13247;47.504;7.382;2023-07-29T11:26:47;96858.56;;;26.52;95.47
21817;BME280;13247;47.504;7.382;2023-07-29T11:29:32;96856.50;;;26.46;95.67
21817;BME280;13247;47.504;7.382;2023-07-29T11:32:17;96862.06;;;26.27;99.58
21817;BME280;13247;47.504;7.382;2023-07-29T11:35:06;96853.84;;;26.11;100.00
21817;BME280;13247;47.504;7.382;2023-07-29T11:37:54;96843.03;;;26.20;99.04
21817;BME280;13247;47.504;7.382;2023-07-29T11:40:39;96843.31;;;26.17;98.69
21817;BME280;13247;47.504;7.382;2023-07-29T11:43:24;96856.09;;;26.59;94.79
21817;BME280;13247;47.504;7.382;2023-07-29T11:46:08;96849.16;;;26.56;92.77
21817;BME280;13247;47.504;7.382;2023-07-29T11:48:55;96844.16;;;26.35;92.96
21817;BME280;13247;47.504;7.382;2023-07-29T11:51:41;96854.22;;;26.33;91.13
21817;BME280;13247;47.504;7.382;2023-07-29T11:54:30;96849.25;;;26.21;89.94
21817;BME280;13247;47.504;7.382;2023-07-29T11:57:15;96861.78;;;26.12;91.23
21817;BME280;13247;47.504;7.382;2023-07-29T12:00:02;96853.72;;;26.38;89.83
21817;BME280;13247;47.504;7.382;2023-07-29T12:02:49;96868.50;;;26.60;88.65
21817;BME280;13247;47.504;7.382;2023-07-29T12:05:34;96867.81;;;26.58;88.04
21817;BME280;13247;47.504;7.382;2023-07-29T12:08:20;96863.09;;;26.52;89.59
21817;BME280;13247;47.504;7.382;2023-07-29T12:11:04;96872.88;;;26.78;88.87
21817;BME280;13247;47.504;7.382;2023-07-29T12:13:49;96882.59;;;26.54;88.10
21817;BME280;13247;47.504;7.382;2023-07-29T12:16:43;96878.78;;;26.38;91.59
21817;BME280;13247;47.504;7.382;2023-07-29T12:19:33;96882.50;;;26.20;91.62
21817;BME280;13247;47.504;7.382;2023-07-29T12:22:19;96892.16;;;26.48;92.34
21817;BME280;13247;47.504;7.382;2023-07-29T12:25:05;96887.66;;;26.31;90.81
21817;BME280;13247;47.504;7.382;2023-07-29T12:27:50;96884.22;;;26.21;92.37
21817;BME280;13247;47.504;7.382;2023-07-29T12:30:42;96895.66;;;26.23;91.12
21817;BME280;13247;47.504;7.382;2023-07-29T12:36:17;96899.06;;;25.98;92.24
21817;BME280;13247;47.504;7.382;2023-07-29T12:39:02;96895.72;;;26.13;92.51
21817;BME280;13247;47.504;7.382;2023-07-29T12:41:47;96897.03;;;26.27;91.86
21817;BME280;13247;47.504;7.382;2023-07-29T12:44:34;96895.78;;;26.21;93.72
21817;BME280;13247;47.504;7.382;2023-07-29T12:47:19;96893.91;;;26.04;91.35
21817;BME280;13247;47.504;7.382;2023-07-29T12:50:04;96892.84;;;25.80;91.67
21817;BME280;13247;47.504;7.382;2023-07-29T12:52:49;96893.53;;;25.82;93.37
21817;BME280;13247;47.504;7.382;2023-07-29T12:55:34;96893.56;;;25.54;93.54
21817;BME280;13247;47.504;7.382;2023-07-29T12:58:19;96897.66;;;25.58;95.36
21817;BME280;13247;47.504;7.382;2023-07-29T13:01:03;96910.84;;;25.52;94.75
21817;BME280;13247;47.504;7.382;2023-07-29T13:03:48;96907.00;;;25.54;99.92
21817;BME280;13247;47.504;7.382;2023-07-29T13:06:33;96919.94;;;25.41;100.00
21817;BME280;13247;47.504;7.382;2023-07-29T13:09:17;96936.25;;;25.21;100.00
21817;BME280;13247;47.504;7.382;2023-07-29T13:12:02;96931.44;;;25.24;100.00
21817;BME280;13247;47.504;7.382;2023-07-29T13:14:47;96938.44;;;25.35;100.00
21817;BME280;13247;47.504;7.382;2023-07-29T13:17:32;96947.81;;;25.58;100.00
21817;BME280;13247;47.504;7.382;2023-07-29T13:20:16;96952.00;;;24.97;100.00
21817;BME280;13247;47.504;7.382;2023-07-29T13:23:01;96962.78;;;24.68;100.00
21817;BME280;13247;47.504;7.382;2023-07-29T13:25:45;96967.69;;;23.96;100.00
21817;BME280;13247;47.504;7.382;2023-07-29T13:28:30;96985.69;;;23.65;100.00
21817;BME280;13247;47.504;7.382;2023-07-29T13:31:14;96972.13;;;23.57;100.00
21817;BME280;13247;47.504;7.382;2023-07-29T13:33:59;96974.94;;;23.25;100.00
21817;BME280;13247;47.504;7.382;2023-07-29T13:36:44;96958.44;;;23.51;100.00
21817;BME280;13247;47.504;7.382;2023-07-29T13:39:28;96962.91;;;23.40;100.00
21817;BME280;13247;47.504;7.382;2023-07-29T13:42:13;96962.50;;;23.15;100.00
21817;BME280;13247;47.504;7.382;2023-07-29T13:44:58;96954.91;;;23.20;100.00
21817;BME280;13247;47.504;7.382;2023-07-29T13:47:42;96965.00;;;23.07;100.00
21817;BME280;13247;47.504;7.382;2023-07-29T13:50:27;96965.34;;;22.93;100.00
21817;BME280;13247;47.504;7.382;2023-07-29T13:53:15;96968.75;;;22.95;100.00
21817;BME280;13247;47.504;7.382;2023-07-29T13:56:00;96967.91;;;22.74;100.00
21817;BME280;13247;47.504;7.382;2023-07-29T13:58:44;96961.41;;;22.67;100.00
21817;BME280;13247;47.504;7.382;2023-07-29T14:01:29;96966.03;;;22.64;100.00
21817;BME280;13247;47.504;7.382;2023-07-29T14:04:13;96970.94;;;22.59;100.00
21817;BME280;13247;47.504;7.382;2023-07-29T14:06:58;96975.56;;;22.78;100.00
21817;BME280;13247;47.504;7.382;2023-07-29T14:09:42;96970.41;;;22.66;100.00
21817;BME280;13247;47.504;7.382;2023-07-29T14:12:28;96970.94;;;22.59;100.00
21817;BME280;13247;47.504;7.382;2023-07-29T14:15:12;96977.03;;;22.71;100.00
21817;BME280;13247;47.504;7.382;2023-07-29T14:17:57;96979.09;;;22.79;100.00
21817;BME280;13247;47.504;7.382;2023-07-29T14:20:42;96981.75;;;22.79;100.00
21817;BME280;13247;47.504;7.382;2023-07-29T14:23:27;96984.16;;;22.61;100.00
21817;BME280;13247;47.504;7.382;2023-07-29T14:26:15;96978.94;;;22.59;100.00
21817;BME280;13247;47.504;7.382;2023-07-29T14:29:00;96985.72;;;22.63;100.00
21817;BME280;13247;47.504;7.382;2023-07-29T14:31:44;96992.53;;;22.56;100.00
21817;BME280;13247;47.504;7.382;2023-07-29T14:34:29;97000.03;;;22.42;100.00
21817;BME280;13247;47.504;7.382;2023-07-29T14:37:14;96999.88;;;22.43;100.00
21817;BME280;13247;47.504;7.382;2023-07-29T14:39:59;96997.94;;;22.45;100.00
21817;BME280;13247;47.504;7.382;2023-07-29T14:42:44;96994.84;;;22.29;100.00